This is the latest recevied weather packets stored in our database for station/object OE-11331. If no packets are shown the sender has not sent any weather packets the latest 10 day(s).
| Time | Temp. | Humidity | Pressure | Rain* | Wind** | Luminosity | Snow |
|---|---|---|---|---|---|---|---|
| 1787623904 | 15° C | 86% | 1014.2 hPa | 0 mm | - | 0 W/m² | - |
| 1787623531 | 15.56° C | 84% | 1014.2 hPa | 0 mm | - | 0 W/m² | - |
| 1787622932 | 15.56° C | 84% | 1014.3 hPa | 0 mm | - | 0 W/m² | - |
| 1787622105 | 15.56° C | 84% | 1014.6 hPa | 0 mm | - | 0 W/m² | - |
| 1787621732 | 15.56° C | 86% | 1014.7 hPa | 0 mm | - | 0 W/m² | - |
| 1787621132 | 15.56° C | 86% | 1015 hPa | 0 mm | - | 0 W/m² | - |
| 1787620304 | 15.56° C | 86% | 1014.9 hPa | 0 mm | - | 0 W/m² | - |
| 1787619932 | 15.56° C | 85% | 1014.9 hPa | 0 mm | - | 0 W/m² | - |
| 1787619332 | 16.11° C | 84% | 1014.9 hPa | 0 mm | - | 0 W/m² | - |
| 1787618504 | 16.11° C | 84% | 1015.1 hPa | 0 mm | - | 0 W/m² | - |
| 1787618132 | 16.11° C | 84% | 1015.3 hPa | 0 mm | - | 0 W/m² | - |
| 1787617532 | 16.67° C | 82% | 1015.5 hPa | 0 mm | - | 0 W/m² | - |
| 1787616705 | 16.11° C | 83% | 1015.5 hPa | 0 mm | - | 0 W/m² | - |
| 1787616332 | 16.67° C | 82% | 1015.6 hPa | 0 mm | - | 0 W/m² | - |
| 1787615732 | 16.67° C | 83% | 1015.8 hPa | 0 mm | - | 0 W/m² | - |
| 1787614904 | 16.67° C | 83% | 1016.2 hPa | 0 mm | - | 0 W/m² | - |
| 1787614532 | 16.67° C | 81% | 1016.4 hPa | 0 mm | - | 0 W/m² | - |
| 1787613932 | 17.22° C | 81% | 1016.5 hPa | 0 mm | - | 0 W/m² | - |
| 1787613332 | 17.22° C | 80% | 1016.5 hPa | 0 mm | - | 0 W/m² | - |
| 1787612731 | 17.22° C | 79% | 1016.7 hPa | 0 mm | - | 0 W/m² | - |
| 1787612132 | 17.22° C | 79% | 1016.8 hPa | 0 mm | - | 0 W/m² | - |
| 1787611305 | 17.78° C | 77% | 1016.7 hPa | 0 mm | - | 0 W/m² | - |
| 1787610931 | 18.33° C | 76% | 1016.6 hPa | 0 mm | - | 0 W/m² | - |
| 1787610332 | 18.33° C | 74% | 1016.7 hPa | 0 mm | - | 0 W/m² | - |
| 1787609505 | 17.78° C | 77% | 1016.7 hPa | 0 mm | - | 0 W/m² | - |
* Rain latest hour (hover to see other rain measurements)
** Current wind speed in m/s (hover to see current wind gust speed)